TimeMST,TemperatureF,Dew PointF,Humidity,Sea Level PressureIn,VisibilityMPH,Wind Direction,Wind SpeedMPH,Gust SpeedMPH,PrecipitationIn,Events,Conditions,WindDirDegrees,DateUTC
12:53 AM,8.1,3.0,80,30.68,10.0,Calm,Calm,-,N/A,,Overcast,0,2011-12-05 07:53:00
1:53 AM,9.0,3.9,80,30.65,10.0,SSE,3.5,-,N/A,,Overcast,150,2011-12-05 08:53:00
2:53 AM,9.0,5.0,84,30.64,10.0,Calm,Calm,-,N/A,,Overcast,0,2011-12-05 09:53:00
3:53 AM,8.6,5.0,85,30.47,10.0,SSE,3.5,-,N/A,,Overcast,160,2011-12-05 10:53:00
4:31 AM,6.8,3.2,85,30.46,10.0,SSE,3.5,-,N/A,,Overcast,150,2011-12-05 11:31:00
4:53 AM,8.1,3.0,80,30.61,10.0,South,4.6,-,N/A,,Mostly Cloudy,170,2011-12-05 11:53:00
5:01 AM,6.8,3.2,85,30.45,10.0,SSE,5.8,-,N/A,,Scattered Clouds,160,2011-12-05 12:01:00
5:53 AM,3.9,-0.0,84,30.60,10.0,SSE,6.9,-,N/A,,Clear,150,2011-12-05 12:53:00
6:53 AM,3.9,-0.0,84,30.61,10.0,SSE,8.1,-,N/A,,Clear,160,2011-12-05 13:53:00
7:53 AM,3.9,-0.0,84,30.61,10.0,SSE,9.2,-,N/A,,Clear,160,2011-12-05 14:53:00
8:53 AM,6.8,3.2,85,30.41,10.0,SSE,6.9,-,N/A,,Clear,150,2011-12-05 15:53:00
9:53 AM,10.9,5.0,77,30.57,10.0,SSE,9.2,-,N/A,,Clear,160,2011-12-05 16:53:00
10:53 AM,16.0,8.1,71,30.55,10.0,SSE,6.9,-,N/A,,Clear,160,2011-12-05 17:53:00
11:53 AM,19.9,9.0,62,30.50,10.0,SSE,5.8,-,N/A,,Clear,150,2011-12-05 18:53:00
12:53 PM,23.0,9.0,55,30.47,10.0,South,5.8,-,N/A,,Clear,190,2011-12-05 19:53:00
1:53 PM,24.1,8.1,51,30.41,10.0,SSW,10.4,-,N/A,,Clear,200,2011-12-05 20:53:00
2:53 PM,24.1,8.1,51,30.38,10.0,South,11.5,-,N/A,,Clear,190,2011-12-05 21:53:00
3:53 PM,21.0,7.0,55,30.37,10.0,South,8.1,-,N/A,,Clear,190,2011-12-05 22:53:00
4:53 PM,18.0,5.0,57,30.39,10.0,SSW,9.2,-,N/A,,Clear,200,2011-12-05 23:53:00
5:53 PM,17.1,3.9,56,30.37,10.0,South,8.1,-,N/A,,Clear,190,2011-12-06 00:53:00
6:53 PM,15.1,3.9,61,30.35,10.0,South,8.1,-,N/A,,Clear,190,2011-12-06 01:53:00
7:53 PM,10.4,3.2,73,30.17,10.0,SSE,6.9,-,N/A,,Clear,160,2011-12-06 02:53:00
8:53 PM,8.1,1.9,76,30.33,10.0,SSE,6.9,-,N/A,,Clear,150,2011-12-06 03:53:00
9:53 PM,9.0,3.0,77,30.29,10.0,SSE,6.9,-,N/A,,Clear,150,2011-12-06 04:53:00
10:53 PM,10.0,3.0,73,30.27,10.0,SSE,8.1,-,N/A,,Clear,150,2011-12-06 05:53:00
11:53 PM,9.0,1.9,73,30.23,10.0,SSE,8.1,-,N/A,,Clear,160,2011-12-06 06:53:00